Time;durP1;ratioP1;P1;durP2;ratioP2;P2;SDS_P1;SDS_P2;PMS_P1;PMS_P2;Temp;Humidity;BMP_temperature;BMP_pressure;BME280_temperature;BME280_humidity;BME280_pressure;Samples;Min_cycle;Max_cycle;Signal;HPM_P1;HPM_P2
2022/08/06 00:02:13;;;;;;;;;;;;;;;27.98;38.78;100357.28;5015535;28;1011;-38
2022/08/06 00:04:38;;;;;;;;;;;;;;;28.33;39.45;100363.72;5014720;28;816;-37
2022/08/06 00:07:04;;;;;;;;;;;;;;;28.16;37.74;100368.63;5015534;28;1898;-39
2022/08/06 00:09:30;;;;;;;;;;;;;;;27.86;39.99;100365.09;5015588;28;1154;-37
2022/08/06 00:12:01;;;;;;;;;;;;;;;28.32;37.29;100365.59;5016022;28;979;-38
2022/08/06 00:14:27;;;;;;;;;;;;;;;28.16;38.68;100360.50;5015664;28;1137;-40
2022/08/06 00:16:52;;;;;;;;;;;;;;;28.21;40.05;100361.56;5009447;28;782;-39
2022/08/06 00:19:17;;;;;;;;;;;;;;;28.41;38.13;100360.84;4999991;28;1157;-38
2022/08/06 00:21:43;;;;;;;;;;;;;;;28.02;39.30;100348.75;5009012;28;1045;-38
2022/08/06 00:24:08;;;;;;;;;;;;;;;28.47;36.71;100354.66;5011000;28;1015;-38
2022/08/06 00:26:33;;;;;;;;;;;;;;;28.23;38.11;100355.94;5018948;28;1978;-38
2022/08/06 00:28:59;;;;;;;;;;;;;;;27.89;41.08;100357.63;5013497;28;1034;-39
2022/08/06 00:31:24;;;;;;;;;;;;;;;28.34;37.96;100352.69;5016959;28;999;-39
2022/08/06 00:33:49;;;;;;;;;;;;;;;27.98;38.99;100351.03;5018820;28;1085;-36
2022/08/06 00:36:14;;;;;;;;;;;;;;;28.40;37.79;100352.94;5018524;28;971;-39
2022/08/06 00:38:40;;;;;;;;;;;;;;;28.19;38.26;100344.72;5019203;28;1048;-40
2022/08/06 00:41:05;;;;;;;;;;;;;;;27.99;41.03;100342.72;5014728;28;1049;-38
2022/08/06 00:43:30;;;;;;;;;;;;;;;28.44;38.11;100344.25;5018071;28;1184;-38
2022/08/06 00:45:56;;;;;;;;;;;;;;;28.32;38.38;100343.94;5018448;28;1894;-38
2022/08/06 00:48:21;;;;;;;;;;;;;;;28.56;39.33;100349.88;5016335;28;1152;-39
2022/08/06 00:50:46;;;;;;;;;;;;;;;28.31;38.05;100355.78;5008348;28;943;-38
2022/08/06 00:53:12;;;;;;;;;;;;;;;28.01;40.06;100347.91;5011162;28;958;-39
2022/08/06 00:55:37;;;;;;;;;;;;;;;28.42;38.59;100350.88;5016691;28;1113;-39
2022/08/06 00:58:03;;;;;;;;;;;;;;;27.96;38.99;100351.22;5007709;28;975;-39
2022/08/06 01:00:28;;;;;;;;;;;;;;;28.31;40.04;100357.66;5018680;28;923;-39
2022/08/06 01:02:54;;;;;;;;;;;;;;;27.61;38.35;100354.69;5018643;28;1014;-40
2022/08/06 01:05:19;;;;;;;;;;;;;;;26.97;40.93;100357.22;5008023;28;1963;-38
2022/08/06 01:07:44;;;;;;;;;;;;;;;27.66;38.73;100354.09;5016394;28;1118;-39
2022/08/06 01:10:09;;;;;;;;;;;;;;;27.95;37.78;100362.25;5009418;28;1229;-37
2022/08/06 01:12:35;;;;;;;;;;;;;;;28.02;38.00;100348.75;5007834;28;1200;-39
2022/08/06 01:15:00;;;;;;;;;;;;;;;28.02;37.80;100354.19;5007276;28;975;-39
2022/08/06 01:17:28;;;;;;;;;;;;;;;28.15;37.77;100348.00;5012515;28;1125;-39
2022/08/06 01:20:10;;;;;;;;;;;;;;;28.27;39.65;100343.72;5018560;28;1062;-39
2022/08/06 01:22:50;;;;;;;;;;;;;;;28.20;38.22;100346.38;5018055;28;1188;-39
2022/08/06 01:25:21;;;;;;;;;;;;;;;27.96;39.45;100337.72;5017007;28;1910;-38
2022/08/06 01:27:58;;;;;;;;;;;;;;;28.23;39.48;100339.72;5015847;28;974;-38
2022/08/06 01:30:24;;;;;;;;;;;;;;;28.15;37.94;100340.72;5015817;28;904;-38
2022/08/06 01:32:53;;;;;;;;;;;;;;;27.82;40.04;100347.63;5033541;28;1018;-38
2022/08/06 01:35:26;;;;;;;;;;;;;;;28.29;36.88;100346.22;5015826;28;1022;-38
2022/08/06 01:38:03;;;;;;;;;;;;;;;28.13;37.86;100344.69;5032799;28;1073;-39
2022/08/06 01:40:29;;;;;;;;;;;;;;;27.73;41.09;100340.69;5018035;28;994;-39
2022/08/06 01:42:55;;;;;;;;;;;;;;;28.30;37.26;100347.88;5016410;28;1089;-38
2022/08/06 01:45:21;;;;;;;;;;;;;;;28.46;37.10;100346.75;5010764;28;1985;-38
2022/08/06 01:47:47;;;;;;;;;;;;;;;28.41;39.11;100341.09;5010867;28;987;-38
2022/08/06 01:50:12;;;;;;;;;;;;;;;28.26;37.22;100341.22;5017651;28;994;-38
2022/08/06 01:52:41;;;;;;;;;;;;;;;27.93;39.13;100327.28;5016739;28;1026;-39
2022/08/06 01:55:07;;;;;;;;;;;;;;;27.54;39.44;100334.06;5015503;28;1026;-39
2022/08/06 01:57:33;;;;;;;;;;;;;;;27.67;38.28;100336.88;5010592;28;1011;-38
2022/08/06 01:59:58;;;;;;;;;;;;;;;27.71;38.56;100334.66;5016480;28;1002;-38
2022/08/06 02:02:23;;;;;;;;;;;;;;;28.02;37.17;100329.84;5032801;28;947;-38
2022/08/06 02:04:52;;;;;;;;;;;;;;;27.80;37.69;100330.75;5017184;28;1010;-37
2022/08/06 02:07:18;;;;;;;;;;;;;;;28.07;38.25;100325.53;5013143;28;1890;-38
2022/08/06 02:09:44;;;;;;;;;;;;;;;28.12;36.89;100330.31;5012031;28;1275;-38
2022/08/06 02:12:17;;;;;;;;;;;;;;;27.80;38.71;100328.06;5016929;28;1033;-38
2022/08/06 02:14:45;;;;;;;;;;;;;;;28.23;37.90;100327.03;5015989;28;1235;-38
2022/08/06 02:17:11;;;;;;;;;;;;;;;28.26;36.51;100328.50;5008912;28;999;-38
2022/08/06 02:19:36;;;;;;;;;;;;;;;27.74;40.20;100316.16;5031198;28;1275;-38
2022/08/06 02:22:02;;;;;;;;;;;;;;;28.11;37.21;100328.66;5032569;28;990;-38
2022/08/06 02:24:28;;;;;;;;;;;;;;;27.80;38.77;100328.06;5032321;28;1093;-38
2022/08/06 02:26:53;;;;;;;;;;;;;;;28.09;39.57;100336.13;5013949;28;1972;-39
2022/08/06 02:29:19;;;;;;;;;;;;;;;28.23;37.64;100329.75;5005654;28;1031;-38
2022/08/06 02:31:44;;;;;;;;;;;;;;;27.73;39.92;100327.16;5015828;28;1049;-38
2022/08/06 02:34:10;;;;;;;;;;;;;;;28.14;37.15;100330.97;5016411;28;1042;-38
2022/08/06 02:36:39;;;;;;;;;;;;;;;27.90;37.86;100327.69;5016526;28;1153;-38
2022/08/06 02:39:33;;;;;;;;;;;;;;;27.94;40.06;100328.16;5024296;28;1077;-39
2022/08/06 02:42:03;;;;;;;;;;;;;;;27.21;38.04;100330.09;5002869;28;1360;-37
2022/08/06 02:44:28;;;;;;;;;;;;;;;27.30;38.91;100328.91;5031987;28;1073;-38
2022/08/06 02:47:08;;;;;;;;;;;;;;;27.70;37.70;100331.13;5015308;28;1895;-38
2022/08/06 02:49:34;;;;;;;;;;;;;;;27.89;36.84;100330.59;5012887;28;958;-38
2022/08/06 02:52:04;;;;;;;;;;;;;;;27.99;36.46;100339.19;5008001;28;1777;-37
2022/08/06 02:54:33;;;;;;;;;;;;;;;27.84;39.84;100342.84;5009090;28;2225;-39
2022/08/06 02:56:58;;;;;;;;;;;;;;;27.77;36.90;100347.38;5007301;28;1729;-38
2022/08/06 02:59:25;;;;;;;;;;;;;;;27.51;38.86;100351.50;5007117;28;2044;-38
2022/08/06 03:01:52;;;;;;;;;;;;;;;27.91;36.60;100348.28;5011637;28;2179;-39
2022/08/06 03:04:18;;;;;;;;;;;;;;;27.38;38.56;100354.94;5027179;28;2007;-38
2022/08/06 03:06:44;;;;;;;;;;;;;;;27.13;42.03;100356.16;5009396;28;1950;-37
2022/08/06 03:09:10;;;;;;;;;;;;;;;27.34;39.42;100350.97;5009914;28;1111;-37
2022/08/06 03:11:35;;;;;;;;;;;;;;;27.45;40.59;100350.44;5010264;28;1133;-37
2022/08/06 03:14:01;;;;;;;;;;;;;;;27.49;41.59;100354.41;4999011;28;994;-37
2022/08/06 03:16:26;;;;;;;;;;;;;;;27.35;40.08;100356.16;5002923;28;984;-37
2022/08/06 03:18:51;;;;;;;;;;;;;;;27.31;42.12;100354.06;5000396;28;1012;-37
2022/08/06 03:21:17;;;;;;;;;;;;;;;27.12;41.34;100354.50;5022280;28;1038;-36
2022/08/06 03:23:42;;;;;;;;;;;;;;;27.30;41.23;100355.06;5028553;28;1145;-36
2022/08/06 03:26:07;;;;;;;;;;;;;;;27.49;42.98;100356.28;5030599;28;1898;-37
2022/08/06 03:28:33;;;;;;;;;;;;;;;27.26;40.67;100351.91;5009467;28;1220;-37
2022/08/06 03:30:58;;;;;;;;;;;;;;;27.46;42.69;100353.97;5006822;28;1264;-37
2022/08/06 03:33:23;;;;;;;;;;;;;;;27.08;44.89;100353.22;5014341;28;1284;-37
2022/08/06 03:35:49;;;;;;;;;;;;;;;27.40;41.34;100358.28;5011855;28;1082;-37
2022/08/06 03:38:14;;;;;;;;;;;;;;;27.38;42.08;100350.38;5026462;28;2224;-37
2022/08/06 03:40:42;;;;;;;;;;;;;;;27.34;43.11;100356.38;5030818;28;1140;-37
2022/08/06 03:43:07;;;;;;;;;;;;;;;27.26;44.16;100349.22;5030001;28;994;-37
2022/08/06 03:45:35;;;;;;;;;;;;;;;27.22;44.85;100346.09;5015992;28;1977;-36
2022/08/06 03:48:00;;;;;;;;;;;;;;;27.24;44.73;100352.09;5015328;28;1116;-37
2022/08/06 03:50:28;;;;;;;;;;;;;;;27.37;43.10;100350.56;5024165;28;966;-37
2022/08/06 03:53:12;;;;;;;;;;;;;;;27.48;42.25;100357.28;5012129;28;1157;-37
2022/08/06 03:55:38;;;;;;;;;;;;;;;27.24;44.67;100351.28;5001582;28;1209;-37
2022/08/06 03:58:05;;;;;;;;;;;;;;;27.51;42.87;100354.19;5009584;28;1011;-37
2022/08/06 04:00:36;;;;;;;;;;;;;;;27.61;43.85;100356.59;5017677;28;948;-36
2022/08/06 04:03:03;;;;;;;;;;;;;;;27.39;41.01;100354.72;4992648;28;1058;-38
2022/08/06 04:05:29;;;;;;;;;;;;;;;27.12;43.31;100376.09;5029780;28;1961;-37
2022/08/06 04:07:55;;;;;;;;;;;;;;;27.19;44.58;100359.97;5009244;28;2365;-34
2022/08/06 04:10:21;;;;;;;;;;;;;;;27.21;43.72;100357.91;5001928;28;1058;-35
2022/08/06 04:12:46;;;;;;;;;;;;;;;26.98;46.27;100356.19;5030214;28;1189;-35
2022/08/06 04:15:12;;;;;;;;;;;;;;;27.38;46.28;100354.94;5034097;28;974;-35
2022/08/06 04:17:38;;;;;;;;;;;;;;;27.38;44.95;100358.47;5006690;28;1176;-35
2022/08/06 04:20:04;;;;;;;;;;;;;;;27.21;45.04;100359.78;5001675;28;960;-35
2022/08/06 04:22:29;;;;;;;;;;;;;;;27.09;45.78;100357.56;5027589;28;1180;-35
2022/08/06 04:24:54;;;;;;;;;;;;;;;26.83;47.17;100360.78;5001335;28;1077;-35
2022/08/06 04:27:20;;;;;;;;;;;;;;;26.83;47.63;100358.09;5027561;28;1906;-35
2022/08/06 04:29:45;;;;;;;;;;;;;;;27.36;44.81;100355.13;5004639;28;1101;-35
2022/08/06 04:32:10;;;;;;;;;;;;;;;27.20;45.79;100360.78;5009994;28;884;-35
2022/08/06 04:34:36;;;;;;;;;;;;;;;27.32;46.71;100356.56;5023164;28;1235;-35
2022/08/06 04:37:01;;;;;;;;;;;;;;;27.23;46.84;100350.44;5012281;28;1733;-35
2022/08/06 04:39:26;;;;;;;;;;;;;;;26.90;47.89;100351.75;5008864;28;987;-34
2022/08/06 04:41:52;;;;;;;;;;;;;;;26.87;48.50;100354.00;5007386;28;1097;-34
2022/08/06 04:44:17;;;;;;;;;;;;;;;26.58;49.20;100355.75;5001341;28;1011;-35
2022/08/06 04:46:48;;;;;;;;;;;;;;;26.60;49.12;100359.94;5000698;28;1975;-37
2022/08/06 04:49:13;;;;;;;;;;;;;;;27.01;48.88;100368.47;5026802;28;974;-35
2022/08/06 04:51:38;;;;;;;;;;;;;;;26.39;48.36;100364.22;5005652;28;1272;-35
2022/08/06 04:54:05;;;;;;;;;;;;;;;25.72;44.04;100364.09;4991812;28;1046;-35
2022/08/06 04:56:30;;;;;;;;;;;;;;;25.37;43.73;100369.06;5009960;28;1023;-35
2022/08/06 04:58:56;;;;;;;;;;;;;;;25.10;44.56;100363.22;5005937;28;1062;-35
2022/08/06 05:01:21;;;;;;;;;;;;;;;25.09;43.84;100359.66;5013794;28;1015;-34
2022/08/06 05:03:46;;;;;;;;;;;;;;;24.90;44.60;100364.53;5002250;28;1054;-35
2022/08/06 05:06:30;;;;;;;;;;;;;;;24.62;45.24;100361.44;5003177;28;1938;-34
2022/08/06 05:08:57;;;;;;;;;;;;;;;24.67;44.86;100362.56;5011895;28;1042;-35
2022/08/06 05:11:40;;;;;;;;;;;;;;;25.13;46.36;100366.38;5012109;28;1026;-35
2022/08/06 05:14:07;;;;;;;;;;;;;;;26.06;43.92;100366.47;5028253;28;1065;-35
2022/08/06 05:16:34;;;;;;;;;;;;;;;26.37;43.09;100371.69;5009680;28;995;-35
2022/08/06 05:19:03;;;;;;;;;;;;;;;26.63;43.70;100364.09;5011350;28;1062;-35
2022/08/06 05:21:30;;;;;;;;;;;;;;;26.38;42.90;100359.03;5024358;28;1285;-35
2022/08/06 05:23:55;;;;;;;;;;;;;;;25.48;43.17;100363.25;5028678;28;1057;-35
2022/08/06 05:26:20;;;;;;;;;;;;;;;24.89;45.19;100365.47;5026816;28;1980;-35
2022/08/06 05:28:46;;;;;;;;;;;;;;;24.08;46.15;100363.78;5030826;28;1022;-36
2022/08/06 05:31:11;;;;;;;;;;;;;;;24.66;43.73;100360.91;5006016;28;1247;-37
2022/08/06 05:33:37;;;;;;;;;;;;;;;24.54;42.96;100363.13;4999142;28;1082;-36
2022/08/06 05:36:02;;;;;;;;;;;;;;;23.69;44.76;100360.00;4999035;28;1070;-38
2022/08/06 05:38:28;;;;;;;;;;;;;;;24.33;42.34;100361.03;5010612;28;2225;-36
2022/08/06 05:40:55;;;;;;;;;;;;;;;24.02;42.57;100351.88;5009885;28;1038;-37
2022/08/06 05:43:20;;;;;;;;;;;;;;;23.67;43.20;100348.59;5009113;28;1030;-36
2022/08/06 05:45:46;;;;;;;;;;;;;;;23.45;44.00;100362.53;5017791;28;1981;-36
2022/08/06 05:48:11;;;;;;;;;;;;;;;23.31;44.14;100366.66;5028391;28;1603;-36
2022/08/06 05:50:37;;;;;;;;;;;;;;;23.76;45.10;100366.34;5002426;28;1076;-36
2022/08/06 05:53:08;;;;;;;;;;;;;;;25.01;43.53;100371.34;5024597;28;1006;-36
2022/08/06 05:55:49;;;;;;;;;;;;;;;25.63;41.42;100374.09;5006921;28;894;-36
2022/08/06 05:58:15;;;;;;;;;;;;;;;26.08;41.30;100373.31;5001714;28;1038;-36
2022/08/06 06:00:40;;;;;;;;;;;;;;;26.51;39.52;100370.00;5025872;28;1114;-36
2022/08/06 06:03:06;;;;;;;;;;;;;;;26.61;40.00;100363.47;5000429;28;1066;-37
2022/08/06 06:05:32;;;;;;;;;;;;;;;26.89;38.35;100368.16;5031060;28;1929;-37
2022/08/06 06:07:57;;;;;;;;;;;;;;;26.78;38.72;100366.78;5000364;28;2349;-39
2022/08/06 06:10:23;;;;;;;;;;;;;;;26.58;40.53;100367.38;5017938;28;1155;-39
2022/08/06 06:12:48;;;;;;;;;;;;;;;25.29;39.66;100356.53;5009963;28;991;-39
2022/08/06 06:15:14;;;;;;;;;;;;;;;24.38;41.86;100347.06;4986438;28;999;-38
2022/08/06 06:17:48;;;;;;;;;;;;;;;23.96;42.33;100358.78;5004232;28;979;-38
2022/08/06 06:20:18;;;;;;;;;;;;;;;23.68;43.23;100355.63;5002678;28;828;-39
2022/08/06 06:22:57;;;;;;;;;;;;;;;23.54;43.41;100355.28;5002729;28;980;-39
2022/08/06 06:25:23;;;;;;;;;;;;;;;23.37;44.12;100343.72;5007308;28;975;-38
2022/08/06 06:28:07;;;;;;;;;;;;;;;24.01;44.41;100344.81;5004546;28;1918;-39
2022/08/06 06:30:32;;;;;;;;;;;;;;;25.50;41.47;100346.91;4998417;28;970;-39
2022/08/06 06:33:14;;;;;;;;;;;;;;;26.28;39.01;100345.81;4999421;28;935;-39
2022/08/06 06:35:40;;;;;;;;;;;;;;;26.49;38.33;100339.66;5012325;28;1089;-39
2022/08/06 06:38:05;;;;;;;;;;;;;;;26.53;38.44;100340.13;5012078;28;2360;-38
2022/08/06 06:40:34;;;;;;;;;;;;;;;25.56;39.97;100343.47;5007160;28;1073;-39
2022/08/06 06:43:19;;;;;;;;;;;;;;;24.58;41.74;100345.66;4985825;28;996;-39
2022/08/06 06:45:55;;;;;;;;;;;;;;;24.01;42.77;100334.06;5012513;28;1910;-38
2022/08/06 06:48:23;;;;;;;;;;;;;;;23.72;43.32;100335.50;4992896;28;1037;-39
2022/08/06 06:50:49;;;;;;;;;;;;;;;23.56;44.03;100333.63;4998456;28;1105;-38
2022/08/06 06:53:14;;;;;;;;;;;;;;;23.51;43.99;100331.47;5003496;28;1007;-37
2022/08/06 06:55:42;;;;;;;;;;;;;;;24.11;44.05;100335.75;5005678;28;1039;-38
2022/08/06 06:58:07;;;;;;;;;;;;;;;25.37;41.96;100332.22;5029295;28;1081;-37
2022/08/06 07:00:33;;;;;;;;;;;;;;;26.35;38.83;100335.13;5029758;28;1164;-37
2022/08/06 07:02:59;;;;;;;;;;;;;;;26.09;39.95;100342.63;5014336;28;1112;-37
2022/08/06 07:05:24;;;;;;;;;;;;;;;24.79;41.91;100343.38;5031278;28;1026;-37
2022/08/06 07:07:49;;;;;;;;;;;;;;;24.18;42.66;100336.75;5010364;28;1898;-37
2022/08/06 07:10:15;;;;;;;;;;;;;;;23.80;43.26;100342.69;5002752;28;1073;-37
2022/08/06 07:12:40;;;;;;;;;;;;;;;23.53;43.55;100331.31;5029154;28;1105;-37
2022/08/06 07:15:06;;;;;;;;;;;;;;;23.29;44.11;100335.66;5009970;28;1049;-37
2022/08/06 07:17:32;;;;;;;;;;;;;;;23.65;45.00;100334.47;5002000;28;1015;-37
2022/08/06 07:19:58;;;;;;;;;;;;;;;24.66;42.98;100334.00;5001213;28;844;-37
2022/08/06 07:22:24;;;;;;;;;;;;;;;23.90;43.39;100332.59;5022367;28;1030;-36
2022/08/06 07:24:54;;;;;;;;;;;;;;;23.54;46.36;100336.50;5011700;28;1141;-35
2022/08/06 07:27:19;;;;;;;;;;;;;;;24.34;41.75;100328.63;5022719;28;1910;-37
2022/08/06 07:29:44;;;;;;;;;;;;;;;24.41;42.05;100335.97;5002731;28;1243;-37
2022/08/06 07:32:10;;;;;;;;;;;;;;;23.79;43.08;100335.66;4982071;28;998;-37
2022/08/06 07:34:35;;;;;;;;;;;;;;;23.39;43.35;100338.97;5010057;28;1011;-36
2022/08/06 07:37:00;;;;;;;;;;;;;;;23.40;46.83;100335.34;5010318;28;2216;-36
2022/08/06 07:39:27;;;;;;;;;;;;;;;24.59;42.34;100341.09;5015975;28;1015;-36
2022/08/06 07:41:52;;;;;;;;;;;;;;;24.07;42.82;100340.63;5009949;28;1105;-36
2022/08/06 07:44:18;;;;;;;;;;;;;;;23.53;43.70;100339.34;5005043;28;1046;-37
2022/08/06 07:46:48;;;;;;;;;;;;;;;23.19;44.01;100344.69;5031752;28;1902;-37
2022/08/06 07:49:13;;;;;;;;;;;;;;;22.99;44.50;100336.94;5035997;28;1033;-36
2022/08/06 07:51:39;;;;;;;;;;;;;;;23.15;48.54;100338.00;5035276;28;1152;-36
2022/08/06 07:54:05;;;;;;;;;;;;;;;24.31;43.07;100344.25;5025327;28;1010;-37
2022/08/06 07:56:30;;;;;;;;;;;;;;;23.93;43.02;100336.78;5015761;28;1042;-37
2022/08/06 07:58:56;;;;;;;;;;;;;;;23.39;43.62;100343.53;5034228;28;1144;-37
2022/08/06 08:01:21;;;;;;;;;;;;;;;23.14;44.06;100340.84;5024923;28;1113;-37
2022/08/06 08:06:31;;;;;;;;;;;;;;;23.06;46.96;100347.00;5018115;28;2335;-36
2022/08/06 08:08:56;;;;;;;;;;;;;;;24.31;43.10;100344.25;4998923;28;1074;-37
2022/08/06 08:11:23;;;;;;;;;;;;;;;23.63;44.04;100333.81;5010769;28;1101;-37
2022/08/06 08:13:49;;;;;;;;;;;;;;;23.19;44.52;100341.19;5006447;28;1034;-37
2022/08/06 08:16:15;;;;;;;;;;;;;;;22.97;44.57;100336.25;5020402;28;1130;-38
2022/08/06 08:18:40;;;;;;;;;;;;;;;22.89;44.76;100340.78;5021950;28;1120;-37
2022/08/06 08:21:07;;;;;;;;;;;;;;;22.86;48.84;100345.47;5008098;28;1200;-38
2022/08/06 08:23:32;;;;;;;;;;;;;;;23.94;44.71;100335.78;5025112;28;979;-39
2022/08/06 08:25:58;;;;;;;;;;;;;;;24.97;42.32;100335.06;5015155;28;1910;-38
2022/08/06 08:28:24;;;;;;;;;;;;;;;25.49;41.53;100340.69;5014357;28;1054;-38
2022/08/06 08:30:49;;;;;;;;;;;;;;;25.85;40.47;100339.22;5021549;28;983;-39
2022/08/06 08:33:15;;;;;;;;;;;;;;;26.06;39.79;100334.94;5012417;28;1117;-39
2022/08/06 08:35:40;;;;;;;;;;;;;;;26.37;40.11;100341.19;5015082;28;994;-39
2022/08/06 08:38:06;;;;;;;;;;;;;;;26.53;39.15;100340.97;5011536;28;2414;-39
2022/08/06 08:40:31;;;;;;;;;;;;;;;25.05;40.04;100344.91;5015645;28;994;-39
2022/08/06 08:42:58;;;;;;;;;;;;;;;24.13;41.83;100345.28;5028889;28;1007;-38
2022/08/06 08:45:23;;;;;;;;;;;;;;;23.79;42.25;100341.84;4982019;28;1112;-38
2022/08/06 08:47:52;;;;;;;;;;;;;;;23.45;42.95;100341.06;5014911;28;2051;-38
2022/08/06 08:50:18;;;;;;;;;;;;;;;23.23;43.54;100339.84;5017885;28;1003;-38
2022/08/06 08:52:43;;;;;;;;;;;;;;;23.12;45.89;100341.00;5006112;28;999;-37
2022/08/06 08:55:09;;;;;;;;;;;;;;;24.14;43.72;100346.16;5007173;28;995;-40
2022/08/06 08:57:35;;;;;;;;;;;;;;;25.20;41.59;100344.97;5003596;28;1200;-39
2022/08/06 09:00:00;;;;;;;;;;;;;;;25.91;39.36;100351.94;5018365;28;1029;-40
2022/08/06 09:02:26;;;;;;;;;;;;;;;26.10;39.08;100354.28;5018234;28;1010;-39
2022/08/06 09:04:52;;;;;;;;;;;;;;;26.22;40.24;100350.09;5006135;28;955;-39
2022/08/06 09:07:18;;;;;;;;;;;;;;;25.76;39.67;100346.53;5008835;28;2495;-40
2022/08/06 09:09:43;;;;;;;;;;;;;;;24.57;40.63;100346.66;5008120;28;981;-38
2022/08/06 09:12:08;;;;;;;;;;;;;;;23.97;41.92;100348.88;5008776;28;978;-39
2022/08/06 09:14:37;;;;;;;;;;;;;;;23.54;42.89;100349.91;5002982;28;1259;-39
2022/08/06 09:17:02;;;;;;;;;;;;;;;23.39;42.97;100341.66;5000606;28;1022;-39
2022/08/06 09:19:29;;;;;;;;;;;;;;;23.24;43.31;100345.03;5004685;28;1173;-38
2022/08/06 09:21:57;;;;;;;;;;;;;;;23.19;46.90;100338.50;5003403;28;815;-39
2022/08/06 09:24:22;;;;;;;;;;;;;;;24.22;43.48;100351.53;5012865;28;1153;-39
2022/08/06 09:27:00;;;;;;;;;;;;;;;25.38;41.06;100347.34;4998937;28;1914;-38
2022/08/06 09:29:25;;;;;;;;;;;;;;;26.24;38.97;100349.91;5007889;28;976;-39
2022/08/06 09:31:51;;;;;;;;;;;;;;;26.49;38.81;100350.44;5014384;28;951;-38
2022/08/06 09:34:16;;;;;;;;;;;;;;;26.50;40.52;100351.28;5015972;28;893;-39
2022/08/06 09:36:42;;;;;;;;;;;;;;;25.53;39.88;100342.00;5005569;28;1775;-38
2022/08/06 09:39:07;;;;;;;;;;;;;;;24.57;41.41;100341.28;5002116;28;1058;-40
2022/08/06 09:41:34;;;;;;;;;;;;;;;24.05;42.20;100337.25;5013891;28;1161;-39
2022/08/06 09:43:59;;;;;;;;;;;;;;;23.73;43.11;100340.69;5007812;28;1422;-38
2022/08/06 09:46:55;;;;;;;;;;;;;;;23.55;43.50;100343.56;5029467;28;1957;-39
2022/08/06 09:49:20;;;;;;;;;;;;;;;23.56;43.98;100339.00;4994080;28;1293;-39
2022/08/06 09:51:46;;;;;;;;;;;;;;;24.06;45.44;100342.47;5002816;28;1185;-38
2022/08/06 09:54:21;;;;;;;;;;;;;;;25.47;41.26;100350.81;4987074;28;1077;-37
2022/08/06 09:56:47;;;;;;;;;;;;;;;26.34;39.75;100355.84;5009703;28;916;-38
2022/08/06 09:59:12;;;;;;;;;;;;;;;26.50;39.20;100354.84;5002676;28;1541;-37
2022/08/06 10:01:44;;;;;;;;;;;;;;;25.46;39.86;100361.78;5016087;28;1014;-38
2022/08/06 10:04:13;;;;;;;;;;;;;;;24.33;41.14;100359.22;5007513;28;1050;-38
2022/08/06 10:06:55;;;;;;;;;;;;;;;23.73;42.57;100364.00;4998906;28;1910;-37
2022/08/06 10:09:21;;;;;;;;;;;;;;;23.44;43.35;100357.31;5002409;28;1117;-37
2022/08/06 10:11:46;;;;;;;;;;;;;;;23.30;43.47;100356.94;5020130;28;1341;-37
2022/08/06 10:14:21;;;;;;;;;;;;;;;23.21;43.88;100363.28;5003423;28;1156;-37
2022/08/06 10:17:02;;;;;;;;;;;;;;;23.25;48.37;100367.34;4998227;28;995;-39
2022/08/06 10:19:27;;;;;;;;;;;;;;;24.62;42.88;100372.19;5006987;28;983;-39
2022/08/06 10:21:53;;;;;;;;;;;;;;;25.34;41.87;100372.94;5005885;28;909;-39
2022/08/06 10:24:18;;;;;;;;;;;;;;;25.66;40.43;100372.88;5021260;28;1109;-39
2022/08/06 10:26:43;;;;;;;;;;;;;;;26.21;39.11;100374.56;4990320;28;1969;-39
2022/08/06 10:29:09;;;;;;;;;;;;;;;26.43;39.33;100364.69;5019810;28;1009;-39
2022/08/06 10:31:34;;;;;;;;;;;;;;;25.90;39.67;100365.59;5024999;28;1164;-39
2022/08/06 10:34:02;;;;;;;;;;;;;;;24.73;40.46;100362.88;5014196;28;850;-38
2022/08/06 10:36:32;;;;;;;;;;;;;;;24.07;42.05;100357.56;5014628;28;2409;-38
2022/08/06 10:38:58;;;;;;;;;;;;;;;23.78;42.77;100353.59;4996864;28;1070;-38
2022/08/06 10:41:23;;;;;;;;;;;;;;;23.63;43.12;100348.06;5027085;28;1164;-38
2022/08/06 10:43:48;;;;;;;;;;;;;;;23.53;43.55;100350.09;4989587;28;1037;-38
2022/08/06 10:46:17;;;;;;;;;;;;;;;23.34;43.86;100354.75;5017565;28;1910;-38
2022/08/06 10:48:43;;;;;;;;;;;;;;;24.49;43.12;100357.44;5014794;28;1094;-38
2022/08/06 10:51:09;;;;;;;;;;;;;;;25.54;42.51;100359.00;5001011;28;959;-38
2022/08/06 10:53:35;;;;;;;;;;;;;;;26.40;38.70;100360.53;5003248;28;1165;-38
2022/08/06 10:56:01;;;;;;;;;;;;;;;26.98;38.43;100358.91;5004504;28;864;-38
2022/08/06 10:58:27;;;;;;;;;;;;;;;25.53;39.60;100352.78;5006650;28;884;-38
2022/08/06 11:00:52;;;;;;;;;;;;;;;24.61;40.80;100357.09;5020991;28;1152;-37
2022/08/06 11:03:30;;;;;;;;;;;;;;;24.15;41.85;100345.97;5009668;28;1069;-36
2022/08/06 11:06:18;;;;;;;;;;;;;;;23.92;42.48;100341.31;5023607;28;1977;-37
2022/08/06 11:09:05;;;;;;;;;;;;;;;23.76;43.31;100341.34;5013238;28;1046;-37
2022/08/06 11:11:50;;;;;;;;;;;;;;;23.70;43.46;100343.72;5017968;28;1327;-36
2022/08/06 11:14:15;;;;;;;;;;;;;;;24.63;43.18;100349.66;4999133;28;1156;-37
2022/08/06 11:16:40;;;;;;;;;;;;;;;25.62;41.25;100358.94;5013985;28;970;-37
2022/08/06 11:19:06;;;;;;;;;;;;;;;24.66;42.45;100357.38;5002276;28;999;-38
2022/08/06 11:21:49;;;;;;;;;;;;;;;24.06;42.78;100353.22;4996367;28;1544;-36
2022/08/06 11:24:15;;;;;;;;;;;;;;;23.60;43.37;100356.47;5001418;28;1058;-35
2022/08/06 11:26:42;;;;;;;;;;;;;;;23.39;43.51;100362.31;5012500;28;1985;-36
2022/08/06 11:29:07;;;;;;;;;;;;;;;23.20;44.26;100365.16;4999224;28;1062;-35
2022/08/06 11:31:37;;;;;;;;;;;;;;;23.31;48.35;100371.19;4999910;28;1134;-36
2022/08/06 11:34:05;;;;;;;;;;;;;;;24.63;43.40;100369.31;4997473;28;1041;-36
2022/08/06 11:36:42;;;;;;;;;;;;;;;25.50;42.18;100373.84;4998619;28;2343;-36
2022/08/06 11:39:07;;;;;;;;;;;;;;;25.93;41.37;100373.31;5004720;28;1039;-37
2022/08/06 11:41:42;;;;;;;;;;;;;;;26.18;40.25;100364.97;5022093;28;982;-37
2022/08/06 11:44:07;;;;;;;;;;;;;;;26.27;40.78;100371.94;5007457;28;939;-37
2022/08/06 11:46:34;;;;;;;;;;;;;;;25.19;40.99;100362.16;5005027;28;1945;-37
2022/08/06 11:48:59;;;;;;;;;;;;;;;24.12;41.31;100367.81;5010944;28;1081;-36
2022/08/06 11:51:43;;;;;;;;;;;;;;;23.41;41.72;100365.69;4999036;28;1018;-35
2022/08/06 11:54:09;;;;;;;;;;;;;;;23.01;43.40;100352.88;4997872;28;1394;-35
2022/08/06 11:56:35;;;;;;;;;;;;;;;22.82;43.96;100354.84;5007593;28;1081;-35
2022/08/06 11:59:13;;;;;;;;;;;;;;;22.80;44.62;100356.03;5002650;28;1089;-36
2022/08/06 12:01:45;;;;;;;;;;;;;;;22.69;45.28;100355.31;4999395;28;976;-35
2022/08/06 12:04:30;;;;;;;;;;;;;;;22.64;45.45;100354.97;5024454;28;1173;-35
2022/08/06 12:07:15;;;;;;;;;;;;;;;23.73;45.61;100345.22;4998883;28;2467;-36
2022/08/06 12:09:40;;;;;;;;;;;;;;;24.98;42.66;100350.16;4996477;28;1220;-38
2022/08/06 12:12:23;;;;;;;;;;;;;;;25.41;41.44;100348.84;5002336;28;967;-37
2022/08/06 12:14:49;;;;;;;;;;;;;;;25.63;41.14;100351.72;5002762;28;976;-38
2022/08/06 12:17:14;;;;;;;;;;;;;;;25.58;43.39;100344.16;5007717;28;954;-38
2022/08/06 12:19:46;;;;;;;;;;;;;;;24.77;41.47;100340.88;5022620;28;1153;-38
2022/08/06 12:22:13;;;;;;;;;;;;;;;23.81;42.96;100336.28;5011309;28;1062;-38
2022/08/06 12:24:38;;;;;;;;;;;;;;;23.46;43.40;100331.13;5004635;28;1200;-39
2022/08/06 12:27:06;;;;;;;;;;;;;;;23.10;44.26;100333.13;5001734;28;1918;-38
2022/08/06 12:29:32;;;;;;;;;;;;;;;22.99;44.52;100328.91;5002078;28;1224;-38
2022/08/06 12:31:57;;;;;;;;;;;;;;;22.84;44.83;100322.50;5021678;28;1145;-39
2022/08/06 12:34:23;;;;;;;;;;;;;;;23.08;47.88;100331.59;5021157;28;956;-40
2022/08/06 12:36:48;;;;;;;;;;;;;;;24.30;43.28;100331.84;5010571;28;2351;-39
2022/08/06 12:39:14;;;;;;;;;;;;;;;24.92;42.36;100323.97;5004324;28;995;-38
2022/08/06 12:41:41;;;;;;;;;;;;;;;25.48;42.38;100324.72;5007515;28;1042;-38
2022/08/06 12:44:06;;;;;;;;;;;;;;;25.76;41.50;100330.38;5003396;28;1026;-37
2022/08/06 12:46:31;;;;;;;;;;;;;;;26.01;41.41;100322.00;5004178;28;1906;-38
2022/08/06 12:48:57;;;;;;;;;;;;;;;26.10;39.79;100319.22;5012641;28;1014;-37
2022/08/06 12:51:22;;;;;;;;;;;;;;;26.47;39.19;100322.84;5001155;28;963;-38
2022/08/06 12:53:52;;;;;;;;;;;;;;;26.63;39.09;100319.09;5005747;28;1102;-37
2022/08/06 12:56:17;;;;;;;;;;;;;;;26.67;38.05;100321.41;5013793;28;1077;-37